San Jose, CA

6:52 AM PST on December 19, 2014 (GMT -0800)
Blossom Hill and Leigh Avenue | Change Station
CLOSE
Current Station
Personal Weather Station
Location: San Jose, CA
Elevation: 200 ft
Nearby Weather Stations

Elev 200 ft 37.24 °N, 121.92 °W | Updated 4 seconds ago

Mostly Cloudy
Mostly Cloudy
53.1 °F
Feels Like 53.1 °F
N
0.0
Wind Variable Wind from SSW
Gusts 0.0 mph

Today
High -- | Low -- °F
--% Chance of Precip.
Yesterday
High -- | Low -- °F
Precip. -- in
7:16 AM 4:52 PM
Waning Crescent, 7% visible
Pressure 30.14 in
Visibility 10.0 miles
Clouds Few 1700 ft
Scattered Clouds 5500 ft
Mostly Cloudy 7000 ft
Dew Point 47.1 °F
Humidity 80%
Rainfall 0.00 in
Snow Depth Not available.
UV 0 out of 12
Pollen 2.00 out of 12
Air Quality Not available.
Flu Activity Not available.
METAR KSJC 191353Z 11012KT 10SM FEW017 SCT055 BKN070 12/09 A3014 RMK AO2 SLP205 T01220089

More Conditions Fewer Conditions

Pressure 30.14 in
Visibility 10.0 miles
Clouds Few 1700 ft
Scattered Clouds 5500 ft
Mostly Cloudy 7000 ft
Dew Point 47.1 °F
Humidity 80%
Rainfall 0.00 in
Snow Depth Not available.
UV 0 out of 12
Pollen 2.00 out of 12
Air Quality Not available.
Flu Activity Not available.
METAR KSJC 191353Z 11012KT 10SM FEW017 SCT055 BKN070 12/09 A3014 RMK AO2 SLP205 T01220089

More Conditions Fewer Conditions

10-Day Weather Forecast

Almanac

Astronomy

Dec. 19, 2014 Rise Set
Actual Time
Civil Twilight
Nautical Twilight
Astronomical Twilight
Moon
Length of Visible Light
Length of Day
Tomorrow will be .
, % of the Moon is Illuminated

Today's Extremes

State Highs State Lows

Community

WunderPhotos

Upload Photos

1,778,988 photos uploaded!

WunderBlogs® & News

Nearby

Air Quality

  Air Quality AQ Index Pollutant
Not available.

Snow Depth

Station Depth Elevation

Earthquake Activity

City Distance Mag. Time & Date
Minimum magnitude displayed is 2.5.

Coastal Water Temperatures

Place Temperature

Nearby Weather Stations